createdAt,value
2022-10-24T00:01:40.016Z,17.85
2022-10-24T00:04:08.240Z,23.55
2022-10-24T00:06:36.459Z,17.25
2022-10-24T00:09:04.694Z,16.08
2022-10-24T00:11:33.447Z,25.83
2022-10-24T00:14:02.202Z,21.85
2022-10-24T00:16:31.041Z,20.20
2022-10-24T00:18:59.180Z,13.52
2022-10-24T00:21:27.470Z,16.25
2022-10-24T00:23:55.653Z,24.23
2022-10-24T00:26:23.759Z,21.13
2022-10-24T00:28:51.992Z,15.20
2022-10-24T00:31:20.612Z,14.80
2022-10-24T00:33:49.185Z,16.98
2022-10-24T00:36:20.425Z,14.85
2022-10-24T00:38:49.388Z,12.23
2022-10-24T00:41:23.322Z,18.05
2022-10-24T00:44:11.308Z,15.48
2022-10-24T00:46:41.757Z,14.65
2022-10-24T00:49:15.080Z,23.02
2022-10-24T00:54:13.996Z,20.60
2022-10-24T00:56:47.422Z,15.55
2022-10-24T00:59:20.070Z,18.23
2022-10-24T01:01:48.895Z,20.27
2022-10-24T01:04:17.062Z,18.95
2022-10-24T01:06:54.781Z,20.92
2022-10-24T01:09:43.879Z,16.70
2022-10-24T01:12:22.190Z,18.27
2022-10-24T01:15:08.261Z,17.33
2022-10-24T01:18:02.189Z,17.00
2022-10-24T01:23:27.513Z,14.48
2022-10-24T01:26:02.628Z,15.48
2022-10-24T01:28:53.628Z,19.17
2022-10-24T01:31:34.290Z,14.73
2022-10-24T01:34:40.604Z,16.67
2022-10-24T01:37:15.923Z,19.83
2022-10-24T01:39:49.917Z,16.85
2022-10-24T01:42:22.804Z,22.83
2022-10-24T01:44:55.065Z,22.38
2022-10-24T01:47:30.738Z,17.00
2022-10-24T01:50:04.401Z,16.42
2022-10-24T01:52:39.441Z,18.40
2022-10-24T01:55:08.267Z,19.65
2022-10-24T01:57:37.043Z,17.85
2022-10-24T02:00:07.948Z,16.55
2022-10-24T02:02:45.952Z,26.13
2022-10-24T02:05:47.498Z,15.10
2022-10-24T02:08:21.979Z,16.80
2022-10-24T02:10:56.334Z,15.75
2022-10-24T02:13:42.280Z,22.25
2022-10-24T02:16:11.332Z,14.52
2022-10-24T02:18:40.757Z,21.27
2022-10-24T02:21:32.554Z,22.48
2022-10-24T02:24:18.514Z,16.25
2022-10-24T02:26:53.453Z,30.05
2022-10-24T02:29:53.229Z,24.52
2022-10-24T02:32:31.807Z,15.02
2022-10-24T02:35:02.682Z,21.95
2022-10-24T02:37:34.267Z,17.90
2022-10-24T02:40:05.661Z,15.50
2022-10-24T02:42:35.837Z,19.02
2022-10-24T02:45:05.820Z,21.20
2022-10-24T02:47:35.380Z,26.63
2022-10-24T02:50:03.749Z,17.25
2022-10-24T02:52:32.495Z,22.48
2022-10-24T02:55:00.654Z,20.02
2022-10-24T02:57:28.882Z,19.20
2022-10-24T02:59:57.026Z,25.02
2022-10-24T03:02:26.195Z,20.88
2022-10-24T03:04:54.644Z,21.02
2022-10-24T03:07:23.402Z,20.48
2022-10-24T03:09:51.618Z,33.90
2022-10-24T03:12:20.080Z,25.65
2022-10-24T03:14:48.311Z,23.15
2022-10-24T03:17:16.448Z,19.33
2022-10-24T03:19:45.253Z,21.67
2022-10-24T03:22:13.400Z,22.58
2022-10-24T03:24:54.896Z,21.35
2022-10-24T03:27:23.750Z,18.48
2022-10-24T03:29:51.790Z,15.95
2022-10-24T03:32:20.068Z,23.20
2022-10-24T03:34:48.265Z,21.58
2022-10-24T03:37:16.483Z,19.90
2022-10-24T03:39:44.670Z,18.58
2022-10-24T03:42:12.825Z,17.17
2022-10-24T03:44:40.913Z,24.75
2022-10-24T03:47:09.167Z,16.67
2022-10-24T03:49:37.268Z,22.92
2022-10-24T03:52:07.122Z,21.58
2022-10-24T03:54:35.654Z,16.17
2022-10-24T03:57:04.227Z,18.05
2022-10-24T03:59:32.347Z,22.25
2022-10-24T04:02:01.594Z,21.23
2022-10-24T04:04:30.204Z,27.98
2022-10-24T04:07:00.322Z,22.10
2022-10-24T04:09:29.495Z,23.10
2022-10-24T04:11:57.622Z,29.55
2022-10-24T04:14:25.694Z,23.85
2022-10-24T04:16:53.797Z,13.55
2022-10-24T04:19:22.039Z,17.45
2022-10-24T04:21:50.192Z,18.15
2022-10-24T04:24:18.387Z,29.77
2022-10-24T04:26:46.676Z,17.77
2022-10-24T04:29:14.775Z,18.48
2022-10-24T04:31:42.920Z,21.88
2022-10-24T04:34:11.139Z,24.13
2022-10-24T04:36:39.274Z,15.57
2022-10-24T04:39:10.197Z,19.92
2022-10-24T04:41:38.350Z,30.05
2022-10-24T04:44:06.595Z,14.50
2022-10-24T04:46:34.891Z,21.80
2022-10-24T04:51:48.654Z,13.35
2022-10-24T04:54:16.903Z,19.50
2022-10-24T04:56:45.029Z,14.80
2022-10-24T04:59:13.179Z,18.15
2022-10-24T05:01:41.384Z,22.65
2022-10-24T05:04:09.656Z,19.25
2022-10-24T05:06:39.289Z,17.00
2022-10-24T05:09:09.556Z,16.58
2022-10-24T05:11:37.686Z,24.17
2022-10-24T05:14:05.795Z,23.88
2022-10-24T05:16:34.029Z,21.75
2022-10-24T05:19:02.125Z,22.58
2022-10-24T05:21:30.247Z,21.55
2022-10-24T05:23:58.428Z,19.75
2022-10-24T05:26:26.728Z,18.05
2022-10-24T05:28:54.913Z,17.77
2022-10-24T05:31:23.451Z,17.90
2022-10-24T05:33:54.255Z,16.92
2022-10-24T05:36:22.366Z,18.30
2022-10-24T05:38:50.480Z,16.20
2022-10-24T05:41:18.682Z,15.85
2022-10-24T05:43:46.904Z,15.85
2022-10-24T05:46:15.050Z,19.50
2022-10-24T05:48:43.207Z,17.30
2022-10-24T05:51:11.532Z,18.52
2022-10-24T05:53:39.645Z,18.58
2022-10-24T05:56:07.892Z,26.67
2022-10-24T05:58:39.276Z,22.45
2022-10-24T06:01:07.489Z,20.67
2022-10-24T06:03:35.790Z,17.00
2022-10-24T06:06:09.083Z,29.45
2022-10-24T06:08:38.314Z,22.83
2022-10-24T06:11:10.763Z,19.73
2022-10-24T06:13:39.141Z,19.50
2022-10-24T06:16:07.981Z,25.65
2022-10-24T06:18:41.243Z,17.95
2022-10-24T06:21:12.483Z,18.55
2022-10-24T06:23:43.234Z,18.67
2022-10-24T06:26:11.992Z,17.27
2022-10-24T06:28:40.929Z,21.70
2022-10-24T06:31:11.129Z,19.52
2022-10-24T06:33:39.564Z,19.98
2022-10-24T06:36:12.004Z,23.17
2022-10-24T06:38:40.164Z,20.05
2022-10-24T06:41:09.835Z,21.92
2022-10-24T06:43:38.540Z,23.35
2022-10-24T06:46:08.521Z,20.00
2022-10-24T06:48:37.348Z,22.30
2022-10-24T06:51:05.757Z,26.17
2022-10-24T06:53:34.596Z,19.45
2022-10-24T06:56:04.419Z,16.00
2022-10-24T06:58:34.205Z,23.48
2022-10-24T07:01:09.265Z,22.10
2022-10-24T07:03:37.721Z,21.48
2022-10-24T07:06:24.054Z,21.88
2022-10-24T07:08:54.467Z,21.15
2022-10-24T07:11:22.986Z,20.92
2022-10-24T07:13:51.504Z,22.38
2022-10-24T07:16:24.573Z,26.10
2022-10-24T07:18:53.736Z,26.33
2022-10-24T07:21:25.441Z,20.17
2022-10-24T07:23:54.708Z,25.00
2022-10-24T07:26:25.013Z,17.98
2022-10-24T07:28:56.275Z,20.88
2022-10-24T07:31:27.342Z,21.67
2022-10-24T07:33:56.288Z,25.00
2022-10-24T07:36:26.491Z,27.02
2022-10-24T07:38:57.382Z,32.13
2022-10-24T07:41:28.573Z,26.17
2022-10-24T07:43:58.761Z,23.20
2022-10-24T07:46:26.919Z,27.05
2022-10-24T07:48:55.596Z,22.13
2022-10-24T07:51:24.169Z,24.65
2022-10-24T07:53:54.159Z,17.40
2022-10-24T07:56:22.481Z,24.15
2022-10-24T07:58:50.648Z,21.33
2022-10-24T08:01:24.743Z,24.05
2022-10-24T08:03:53.702Z,18.75
2022-10-24T08:06:25.108Z,20.55
2022-10-24T08:08:53.362Z,29.80
2022-10-24T08:11:27.020Z,29.98
2022-10-24T08:13:57.334Z,20.33
2022-10-24T08:16:26.478Z,22.17
2022-10-24T08:18:56.845Z,28.02
2022-10-24T08:21:26.305Z,30.90
2022-10-24T08:23:55.635Z,30.38
2022-10-24T08:26:25.501Z,38.75
2022-10-24T08:28:55.326Z,24.80
2022-10-24T08:31:24.842Z,21.75
2022-10-24T08:33:55.068Z,21.83
2022-10-24T08:36:26.798Z,24.20
2022-10-24T08:38:55.070Z,24.60
2022-10-24T08:41:50.469Z,21.10
2022-10-24T08:44:31.133Z,22.00
2022-10-24T08:47:11.489Z,27.77
2022-10-24T08:49:49.427Z,28.13
2022-10-24T08:52:37.625Z,28.88
2022-10-24T08:55:44.351Z,28.80
2022-10-24T08:58:13.649Z,30.48
2022-10-24T09:00:44.724Z,29.23
2022-10-24T09:03:43.918Z,28.95
2022-10-24T09:06:22.235Z,31.95
2022-10-24T09:08:58.349Z,27.27
2022-10-24T09:11:41.169Z,25.52
2022-10-24T09:14:37.317Z,28.10
2022-10-24T09:20:11.559Z,33.45
2022-10-24T09:22:43.477Z,29.65
2022-10-24T09:25:34.974Z,24.57
2022-10-24T09:28:06.276Z,36.63
2022-10-24T09:30:36.701Z,32.42
2022-10-24T09:33:33.674Z,30.35
2022-10-24T09:36:04.283Z,29.83
2022-10-24T09:38:40.692Z,38.72
2022-10-24T09:41:29.903Z,34.50
2022-10-24T09:44:00.540Z,34.13
2022-10-24T09:46:39.668Z,39.00
2022-10-24T09:49:17.054Z,36.90
2022-10-24T09:52:16.625Z,35.17
2022-10-24T09:54:46.431Z,34.42
2022-10-24T09:57:16.930Z,44.95
2022-10-24T09:59:57.816Z,38.83
2022-10-24T10:02:34.687Z,40.58
2022-10-24T10:05:02.892Z,34.03
2022-10-24T10:07:41.747Z,31.42
2022-10-24T10:10:37.765Z,35.45
2022-10-24T10:13:27.521Z,34.35
2022-10-24T10:16:01.198Z,28.95
2022-10-24T10:18:32.554Z,28.48
2022-10-24T10:21:00.689Z,29.40
2022-10-24T10:23:36.280Z,28.95
2022-10-24T10:26:37.447Z,25.60
2022-10-24T10:29:26.029Z,29.25
2022-10-24T10:32:13.678Z,28.98
2022-10-24T10:34:51.481Z,25.38
2022-10-24T10:37:32.549Z,22.23
2022-10-24T10:40:37.650Z,27.98
2022-10-24T10:43:56.812Z,29.77
2022-10-24T10:46:33.608Z,31.70
2022-10-24T10:49:20.677Z,23.98
2022-10-24T10:51:54.547Z,30.83
2022-10-24T10:54:53.693Z,31.58
2022-10-24T10:57:54.207Z,27.15
2022-10-24T11:00:25.769Z,25.30
2022-10-24T11:03:17.450Z,28.15
2022-10-24T11:06:06.600Z,24.30
2022-10-24T11:08:48.950Z,28.52
2022-10-24T11:11:31.228Z,29.85
2022-10-24T11:14:14.377Z,29.20
2022-10-24T11:16:43.478Z,37.15
2022-10-24T11:19:45.558Z,28.50
2022-10-24T11:22:23.425Z,29.70
2022-10-24T11:25:02.565Z,35.22
2022-10-24T11:27:43.942Z,26.08
2022-10-24T11:30:19.125Z,21.50
2022-10-24T11:32:55.394Z,27.17
2022-10-24T11:35:30.882Z,27.15
2022-10-24T11:38:16.412Z,22.83
2022-10-24T11:40:47.983Z,24.30
2022-10-24T11:43:27.260Z,28.50
2022-10-24T11:46:26.510Z,23.35
2022-10-24T11:49:25.886Z,21.85
2022-10-24T11:52:21.524Z,33.33
2022-10-24T11:55:00.875Z,22.52
2022-10-24T11:57:32.269Z,23.40
2022-10-24T12:00:00.611Z,25.92
2022-10-24T12:02:37.670Z,28.00
2022-10-24T12:05:31.617Z,27.20
2022-10-24T12:08:05.491Z,27.75
2022-10-24T12:10:59.420Z,21.30
2022-10-24T12:13:55.370Z,23.65
2022-10-24T12:16:40.727Z,28.25
2022-10-24T12:19:18.541Z,24.70
2022-10-24T12:21:53.337Z,21.45
2022-10-24T12:24:30.317Z,27.67
2022-10-24T12:27:03.849Z,23.20
2022-10-24T12:29:34.560Z,25.30
2022-10-24T12:32:41.622Z,25.27
2022-10-24T12:35:31.351Z,23.90
2022-10-24T12:38:14.478Z,25.50
2022-10-24T12:41:06.080Z,19.67
2022-10-24T12:43:45.465Z,24.27
2022-10-24T12:46:22.652Z,25.25
2022-10-24T12:48:59.885Z,21.35
2022-10-24T12:51:39.053Z,20.58
2022-10-24T12:54:13.264Z,18.88
2022-10-24T12:56:50.529Z,17.52
2022-10-24T12:59:46.105Z,20.33
2022-10-24T13:02:20.291Z,24.88
2022-10-24T13:05:07.602Z,21.83
2022-10-24T13:07:38.525Z,20.67
2022-10-24T13:10:31.563Z,25.90
2022-10-24T13:13:21.012Z,23.58
2022-10-24T13:15:57.930Z,18.55
2022-10-24T13:18:49.762Z,21.73
2022-10-24T13:21:56.089Z,17.63
2022-10-24T13:24:29.726Z,20.35
2022-10-24T13:26:58.172Z,25.75
2022-10-24T13:29:30.839Z,24.60
2022-10-24T13:32:05.139Z,28.92
2022-10-24T13:34:52.617Z,22.92
2022-10-24T13:37:31.683Z,32.35
2022-10-24T13:40:10.934Z,24.23
2022-10-24T13:42:50.958Z,23.38
2022-10-24T13:45:42.109Z,21.85
2022-10-24T13:48:19.547Z,24.05
2022-10-24T13:51:13.928Z,23.52
2022-10-24T13:53:50.255Z,22.00
2022-10-24T13:56:19.070Z,30.73
2022-10-24T13:58:47.337Z,20.50
2022-10-24T14:01:23.944Z,21.20
2022-10-24T14:03:54.305Z,28.38
2022-10-24T14:06:31.233Z,26.95
2022-10-24T14:09:09.308Z,29.65
2022-10-24T14:11:47.427Z,22.00
2022-10-24T14:14:30.317Z,25.60
2022-10-24T14:17:23.973Z,22.95
2022-10-24T14:20:00.050Z,24.88
2022-10-24T14:22:39.854Z,37.58
2022-10-24T14:25:24.248Z,21.48
2022-10-24T14:27:54.806Z,22.48
2022-10-24T14:30:26.417Z,25.90
2022-10-24T14:33:15.110Z,27.80
2022-10-24T14:35:43.438Z,27.90
2022-10-24T14:38:15.728Z,24.77
2022-10-24T14:40:53.882Z,23.97
2022-10-24T14:43:30.393Z,23.05
2022-10-24T14:46:32.443Z,22.65
2022-10-24T14:49:29.360Z,24.13
2022-10-24T14:52:09.571Z,24.88
2022-10-24T14:54:38.900Z,21.42
2022-10-24T14:57:18.186Z,22.10
2022-10-24T14:59:47.696Z,30.95
2022-10-24T15:02:26.542Z,33.72
2022-10-24T15:05:14.319Z,25.55
2022-10-24T15:07:57.327Z,27.08
2022-10-24T15:10:37.513Z,27.70
2022-10-24T15:13:21.012Z,29.48
2022-10-24T15:18:28.337Z,26.73
2022-10-24T15:21:13.142Z,35.65
2022-10-24T15:23:50.185Z,29.73
2022-10-24T15:26:34.767Z,27.15
2022-10-24T15:29:02.817Z,32.60
2022-10-24T15:31:32.675Z,33.08
2022-10-24T15:34:00.849Z,27.88
2022-10-24T15:36:35.877Z,37.28
2022-10-24T15:39:24.734Z,30.38
2022-10-24T15:41:54.081Z,27.50
2022-10-24T15:44:26.856Z,33.58
2022-10-24T15:46:56.113Z,28.35
2022-10-24T15:49:24.277Z,29.73
2022-10-24T15:51:52.568Z,29.60
2022-10-24T15:54:22.616Z,33.28
2022-10-24T15:56:51.047Z,25.50
2022-10-24T15:59:20.205Z,32.03
2022-10-24T16:01:54.877Z,36.05
2022-10-24T16:04:23.766Z,24.30
2022-10-24T16:06:54.070Z,32.25
2022-10-24T16:09:27.412Z,29.02
2022-10-24T16:14:27.959Z,31.30
2022-10-24T16:16:56.616Z,32.00
2022-10-24T16:19:29.203Z,32.30
2022-10-24T16:21:58.594Z,25.00
2022-10-24T16:24:28.116Z,26.60
2022-10-24T16:26:56.567Z,27.20
2022-10-24T16:29:24.741Z,23.85
2022-10-24T16:31:53.160Z,36.13
2022-10-24T16:34:21.306Z,31.20
2022-10-24T16:36:56.777Z,31.45
2022-10-24T16:39:24.949Z,28.70
2022-10-24T16:41:57.725Z,33.10
2022-10-24T16:44:28.684Z,42.90
2022-10-24T16:46:56.806Z,28.42
2022-10-24T16:49:24.997Z,28.33
2022-10-24T16:51:53.145Z,31.45
2022-10-24T16:54:22.860Z,28.52
2022-10-24T16:56:53.889Z,33.53
2022-10-24T16:59:22.580Z,37.67
2022-10-24T17:01:51.027Z,28.42
2022-10-24T17:04:19.295Z,32.67
2022-10-24T17:06:47.443Z,34.58
2022-10-24T17:09:15.837Z,26.48
2022-10-24T17:11:45.833Z,34.95
2022-10-24T17:14:15.092Z,30.98
2022-10-24T17:16:44.031Z,28.02
2022-10-24T17:19:16.058Z,27.25
2022-10-24T17:21:47.379Z,33.10
2022-10-24T17:24:17.673Z,34.13
2022-10-24T17:26:46.286Z,32.58
2022-10-24T17:29:26.723Z,42.25
2022-10-24T17:31:57.735Z,35.17
2022-10-24T17:34:26.830Z,27.25
2022-10-24T17:36:59.766Z,29.58
2022-10-24T17:39:32.852Z,27.10
2022-10-24T17:42:01.112Z,29.88
2022-10-24T17:44:29.508Z,29.95
2022-10-24T17:46:58.503Z,33.47
2022-10-24T17:49:26.770Z,30.42
2022-10-24T17:51:55.160Z,29.73
2022-10-24T17:54:23.404Z,25.63
2022-10-24T17:56:54.541Z,22.95
2022-10-24T17:59:22.649Z,30.45
2022-10-24T18:01:50.869Z,33.33
2022-10-24T18:04:19.185Z,31.15
2022-10-24T18:06:47.372Z,28.25
2022-10-24T18:09:15.527Z,26.73
2022-10-24T18:11:43.663Z,29.30
2022-10-24T18:14:11.918Z,41.25
2022-10-24T18:16:40.242Z,37.15
2022-10-24T18:19:08.511Z,34.00
2022-10-24T18:21:36.672Z,33.85
2022-10-24T18:24:09.112Z,27.30
2022-10-24T18:26:37.279Z,30.98
2022-10-24T18:29:05.650Z,31.40
2022-10-24T18:31:34.461Z,32.72
2022-10-24T18:34:06.208Z,33.17
2022-10-24T18:36:37.023Z,37.42
2022-10-24T18:39:05.446Z,27.52
2022-10-24T18:41:57.145Z,33.38
2022-10-24T18:44:28.953Z,33.78
2022-10-24T18:47:06.077Z,27.13
2022-10-24T18:49:35.304Z,33.33
2022-10-24T18:52:30.605Z,30.98
2022-10-24T18:55:28.710Z,36.58
2022-10-24T18:58:01.059Z,32.15
2022-10-24T19:00:31.673Z,33.95
2022-10-24T19:03:18.398Z,29.90
2022-10-24T19:05:51.910Z,31.08
2022-10-24T19:08:25.244Z,36.50
2022-10-24T19:10:56.431Z,31.92
2022-10-24T19:13:26.115Z,25.65
2022-10-24T19:16:00.303Z,30.23
2022-10-24T19:18:31.590Z,35.40
2022-10-24T19:21:00.457Z,36.63
2022-10-24T19:23:28.917Z,28.48
2022-10-24T19:25:57.008Z,36.80
2022-10-24T19:28:25.651Z,36.75
2022-10-24T19:30:54.035Z,41.83
2022-10-24T19:33:28.163Z,27.52
2022-10-24T19:35:56.428Z,34.28
2022-10-24T19:38:24.642Z,31.50
2022-10-24T19:40:54.507Z,31.67
2022-10-24T19:43:24.670Z,36.70
2022-10-24T19:46:07.696Z,32.33
2022-10-24T19:48:43.824Z,43.85
2022-10-24T19:51:13.301Z,36.45
2022-10-24T19:53:43.459Z,36.58
2022-10-24T19:56:28.621Z,31.83
2022-10-24T19:58:57.260Z,32.95
2022-10-24T20:01:30.515Z,41.65
2022-10-24T20:04:00.930Z,40.30
2022-10-24T20:06:29.080Z,37.05
2022-10-24T20:08:57.434Z,40.15
2022-10-24T20:11:25.643Z,39.78
2022-10-24T20:13:53.779Z,35.85
2022-10-24T20:16:22.313Z,35.65
2022-10-24T20:18:50.429Z,35.83
2022-10-24T20:21:19.800Z,37.08
2022-10-24T20:23:48.931Z,29.35
2022-10-24T20:26:20.530Z,36.08
2022-10-24T20:28:50.880Z,31.02
2022-10-24T20:31:30.853Z,30.30
2022-10-24T20:34:05.207Z,36.08
2022-10-24T20:36:38.668Z,35.72
2022-10-24T20:39:08.101Z,34.60
2022-10-24T20:41:37.279Z,30.75
2022-10-24T20:44:07.090Z,40.45
2022-10-24T20:46:36.621Z,30.42
2022-10-24T20:49:05.123Z,28.95
2022-10-24T20:51:33.395Z,25.20
2022-10-24T20:54:01.970Z,30.27
2022-10-24T20:56:30.277Z,27.52
2022-10-24T20:58:58.437Z,24.38
2022-10-24T21:01:28.909Z,25.48
2022-10-24T21:03:58.744Z,22.27
2022-10-24T21:06:29.912Z,41.25
2022-10-24T21:11:36.709Z,25.48
2022-10-24T21:14:07.864Z,27.45
2022-10-24T21:16:36.280Z,26.70
2022-10-24T21:19:04.633Z,25.63
2022-10-24T21:21:32.760Z,29.42
2022-10-24T21:24:04.523Z,27.00
2022-10-24T21:26:38.485Z,22.63
2022-10-24T21:29:33.424Z,18.40
2022-10-24T21:32:01.949Z,24.98
2022-10-24T21:34:33.339Z,25.23
2022-10-24T21:37:04.314Z,22.05
2022-10-24T21:39:32.718Z,22.38
2022-10-24T21:42:01.016Z,24.45
2022-10-24T21:44:29.225Z,32.35
2022-10-24T21:46:57.488Z,28.88
2022-10-24T21:49:25.728Z,25.42
2022-10-24T21:51:53.952Z,25.25
2022-10-24T21:54:25.895Z,30.73
2022-10-24T21:56:54.187Z,23.90
2022-10-24T21:59:23.017Z,34.70
2022-10-24T22:01:52.625Z,28.08
2022-10-24T22:04:21.184Z,19.25
2022-10-24T22:06:49.381Z,24.63
2022-10-24T22:09:23.793Z,21.02
2022-10-24T22:11:54.669Z,20.20
2022-10-24T22:14:23.089Z,19.20
2022-10-24T22:16:51.388Z,24.40
2022-10-24T22:19:19.651Z,23.45
2022-10-24T22:21:50.427Z,20.80
2022-10-24T22:24:21.651Z,26.05
2022-10-24T22:26:50.480Z,18.25
2022-10-24T22:29:23.719Z,22.27
2022-10-24T22:31:52.928Z,21.10
2022-10-24T22:34:26.025Z,25.80
2022-10-24T22:37:39.173Z,29.55
2022-10-24T22:40:28.612Z,29.95
2022-10-24T22:42:57.559Z,23.77
2022-10-24T22:45:26.172Z,33.42
2022-10-24T22:48:19.962Z,27.08
2022-10-24T22:50:54.171Z,25.30
2022-10-24T22:53:25.591Z,31.63
2022-10-24T22:56:12.668Z,33.10
2022-10-24T22:58:43.057Z,27.42
2022-10-24T23:01:19.839Z,30.65
2022-10-24T23:04:18.651Z,29.98
2022-10-24T23:06:49.804Z,26.52
2022-10-24T23:09:18.054Z,28.40
2022-10-24T23:11:47.652Z,28.15
2022-10-24T23:14:24.154Z,25.90
2022-10-24T23:17:00.704Z,25.80
2022-10-24T23:19:31.185Z,30.55
2022-10-24T23:22:10.338Z,43.45
2022-10-24T23:24:39.273Z,29.55
2022-10-24T23:27:13.494Z,28.02
2022-10-24T23:29:44.331Z,28.90
2022-10-24T23:32:30.337Z,27.55
2022-10-24T23:35:03.474Z,24.88
2022-10-24T23:37:37.112Z,24.13
2022-10-24T23:40:11.388Z,27.48
2022-10-24T23:42:39.730Z,27.30
2022-10-24T23:45:17.333Z,39.22
2022-10-24T23:48:21.089Z,28.67
2022-10-24T23:51:01.810Z,44.50
2022-10-24T23:53:52.871Z,29.45
2022-10-24T23:56:22.679Z,31.05
2022-10-24T23:58:54.256Z,29.30
